sensor_id;sensor_type;location;lat;lon;timestamp;pressure;altitude;pressure_sealevel;temperature;humidity
13767;BME280;47980;48.794;9.176;2023-02-15T00:01:52;99582.38;;;1.73;100.00
13767;BME280;47980;48.794;9.176;2023-02-15T00:04:24;99579.69;;;1.67;100.00
13767;BME280;47980;48.794;9.176;2023-02-15T00:07:18;99582.63;;;1.71;100.00
13767;BME280;47980;48.794;9.176;2023-02-15T00:09:50;99577.59;;;1.81;100.00
13767;BME280;47980;48.794;9.176;2023-02-15T00:12:21;99572.03;;;1.78;100.00
13767;BME280;47980;48.794;9.176;2023-02-15T00:14:54;99569.56;;;1.71;100.00
13767;BME280;47980;48.794;9.176;2023-02-15T00:17:26;99570.22;;;1.78;100.00
13767;BME280;47980;48.794;9.176;2023-02-15T00:19:58;99566.91;;;1.83;100.00
13767;BME280;47980;48.794;9.176;2023-02-15T00:22:30;99569.63;;;1.88;100.00
13767;BME280;47980;48.794;9.176;2023-02-15T00:25:01;99561.69;;;1.83;100.00
13767;BME280;47980;48.794;9.176;2023-02-15T00:27:33;99565.91;;;1.72;100.00
13767;BME280;47980;48.794;9.176;2023-02-15T00:30:07;99562.88;;;1.63;100.00
13767;BME280;47980;48.794;9.176;2023-02-15T00:32:39;99561.50;;;1.61;100.00
13767;BME280;47980;48.794;9.176;2023-02-15T00:35:10;99562.03;;;1.63;100.00
13767;BME280;47980;48.794;9.176;2023-02-15T00:37:42;99562.38;;;1.66;100.00
13767;BME280;47980;48.794;9.176;2023-02-15T00:40:14;99558.06;;;1.72;100.00
13767;BME280;47980;48.794;9.176;2023-02-15T00:42:45;99561.00;;;1.76;100.00
13767;BME280;47980;48.794;9.176;2023-02-15T00:45:18;99558.97;;;1.66;100.00
13767;BME280;47980;48.794;9.176;2023-02-15T00:47:51;99557.84;;;1.62;100.00
13767;BME280;47980;48.794;9.176;2023-02-15T00:50:22;99559.22;;;1.64;100.00
13767;BME280;47980;48.794;9.176;2023-02-15T00:52:54;99561.72;;;1.71;100.00
13767;BME280;47980;48.794;9.176;2023-02-15T00:55:25;99555.78;;;1.76;100.00
13767;BME280;47980;48.794;9.176;2023-02-15T00:57:57;99556.81;;;1.75;100.00
13767;BME280;47980;48.794;9.176;2023-02-15T01:00:30;99556.25;;;1.61;100.00
13767;BME280;47980;48.794;9.176;2023-02-15T01:03:01;99558.63;;;1.62;100.00
13767;BME280;47980;48.794;9.176;2023-02-15T01:05:33;99555.34;;;1.55;100.00
13767;BME280;47980;48.794;9.176;2023-02-15T01:08:04;99553.66;;;1.49;100.00
13767;BME280;47980;48.794;9.176;2023-02-15T01:10:36;99557.28;;;1.48;100.00
13767;BME280;47980;48.794;9.176;2023-02-15T01:13:07;99550.72;;;1.46;100.00
13767;BME280;47980;48.794;9.176;2023-02-15T01:15:40;99549.53;;;1.65;100.00
13767;BME280;47980;48.794;9.176;2023-02-15T01:18:12;99554.78;;;1.53;100.00
13767;BME280;47980;48.794;9.176;2023-02-15T01:20:43;99548.53;;;1.54;100.00
13767;BME280;47980;48.794;9.176;2023-02-15T01:23:15;99551.06;;;1.49;100.00
13767;BME280;47980;48.794;9.176;2023-02-15T01:25:47;99552.75;;;1.43;100.00
13767;BME280;47980;48.794;9.176;2023-02-15T01:28:18;99557.38;;;1.41;100.00
13767;BME280;47980;48.794;9.176;2023-02-15T01:30:51;99564.56;;;1.46;100.00
13767;BME280;47980;48.794;9.176;2023-02-15T01:33:23;99558.56;;;1.46;100.00
13767;BME280;47980;48.794;9.176;2023-02-15T01:35:58;99553.97;;;1.41;100.00
13767;BME280;47980;48.794;9.176;2023-02-15T01:38:30;99547.28;;;1.33;100.00
13767;BME280;47980;48.794;9.176;2023-02-15T01:41:01;99544.09;;;1.43;100.00
13767;BME280;47980;48.794;9.176;2023-02-15T01:43:48;99543.97;;;1.38;100.00
13767;BME280;47980;48.794;9.176;2023-02-15T01:46:23;99541.50;;;1.43;100.00
13767;BME280;47980;48.794;9.176;2023-02-15T01:49:00;99541.72;;;1.41;100.00
13767;BME280;47980;48.794;9.176;2023-02-15T01:51:34;99544.69;;;1.22;100.00
13767;BME280;47980;48.794;9.176;2023-02-15T01:54:13;99543.19;;;1.14;100.00
13767;BME280;47980;48.794;9.176;2023-02-15T01:56:47;99541.97;;;1.16;100.00
13767;BME280;47980;48.794;9.176;2023-02-15T01:59:21;99545.59;;;1.27;100.00
13767;BME280;47980;48.794;9.176;2023-02-15T02:01:58;99536.84;;;1.22;100.00
13767;BME280;47980;48.794;9.176;2023-02-15T02:04:33;99534.78;;;1.12;100.00
13767;BME280;47980;48.794;9.176;2023-02-15T02:07:07;99533.88;;;1.06;100.00
13767;BME280;47980;48.794;9.176;2023-02-15T02:09:39;99533.78;;;1.13;100.00
13767;BME280;47980;48.794;9.176;2023-02-15T02:12:11;99528.91;;;1.16;100.00
13767;BME280;47980;48.794;9.176;2023-02-15T02:14:43;99519.69;;;1.14;100.00
13767;BME280;47980;48.794;9.176;2023-02-15T02:17:21;99524.13;;;1.13;100.00
13767;BME280;47980;48.794;9.176;2023-02-15T02:20:12;99521.72;;;1.00;100.00
13767;BME280;47980;48.794;9.176;2023-02-15T02:23:08;99527.63;;;1.19;100.00
13767;BME280;47980;48.794;9.176;2023-02-15T02:26:12;99528.75;;;1.00;100.00
13767;BME280;47980;48.794;9.176;2023-02-15T02:35:01;99512.28;;;0.99;100.00
13767;BME280;47980;48.794;9.176;2023-02-15T02:37:42;99514.47;;;1.02;100.00
13767;BME280;47980;48.794;9.176;2023-02-15T02:42:58;99520.13;;;0.99;100.00
13767;BME280;47980;48.794;9.176;2023-02-15T02:45:35;99516.25;;;1.02;100.00
13767;BME280;47980;48.794;9.176;2023-02-15T02:48:15;99520.25;;;0.92;100.00
13767;BME280;47980;48.794;9.176;2023-02-15T02:50:48;99522.06;;;0.80;100.00
13767;BME280;47980;48.794;9.176;2023-02-15T02:53:20;99519.09;;;0.77;100.00
13767;BME280;47980;48.794;9.176;2023-02-15T02:55:54;99523.38;;;0.71;100.00
13767;BME280;47980;48.794;9.176;2023-02-15T02:58:29;99513.38;;;0.68;100.00
13767;BME280;47980;48.794;9.176;2023-02-15T03:01:06;99516.69;;;0.75;100.00
13767;BME280;47980;48.794;9.176;2023-02-15T03:03:41;99510.22;;;0.78;100.00
13767;BME280;47980;48.794;9.176;2023-02-15T03:06:18;99509.44;;;0.77;100.00
13767;BME280;47980;48.794;9.176;2023-02-15T03:08:54;99508.59;;;0.65;100.00
13767;BME280;47980;48.794;9.176;2023-02-15T03:11:26;99506.56;;;0.67;100.00
13767;BME280;47980;48.794;9.176;2023-02-15T03:13:58;99504.16;;;0.54;100.00
13767;BME280;47980;48.794;9.176;2023-02-15T03:16:30;99500.28;;;0.44;100.00
13767;BME280;47980;48.794;9.176;2023-02-15T03:19:06;99498.88;;;0.30;100.00
13767;BME280;47980;48.794;9.176;2023-02-15T03:21:43;99507.69;;;0.47;100.00
13767;BME280;47980;48.794;9.176;2023-02-15T03:24:31;99503.94;;;0.55;100.00
13767;BME280;47980;48.794;9.176;2023-02-15T03:27:06;99505.66;;;0.61;100.00
13767;BME280;47980;48.794;9.176;2023-02-15T03:29:40;99505.06;;;0.47;100.00
13767;BME280;47980;48.794;9.176;2023-02-15T03:32:14;99506.66;;;0.48;100.00
13767;BME280;47980;48.794;9.176;2023-02-15T03:34:46;99503.34;;;0.41;100.00
13767;BME280;47980;48.794;9.176;2023-02-15T03:37:25;99501.88;;;0.45;100.00
13767;BME280;47980;48.794;9.176;2023-02-15T03:40:00;99503.09;;;0.43;100.00
13767;BME280;47980;48.794;9.176;2023-02-15T03:43:00;99507.69;;;0.47;100.00
13767;BME280;47980;48.794;9.176;2023-02-15T03:45:36;99509.94;;;0.44;100.00
13767;BME280;47980;48.794;9.176;2023-02-15T03:48:28;99514.03;;;0.52;100.00
13767;BME280;47980;48.794;9.176;2023-02-15T03:51:04;99504.94;;;0.54;100.00
13767;BME280;47980;48.794;9.176;2023-02-15T03:53:57;99510.31;;;0.71;100.00
13767;BME280;47980;48.794;9.176;2023-02-15T03:56:29;99514.16;;;0.68;100.00
13767;BME280;47980;48.794;9.176;2023-02-15T03:59:01;99507.94;;;0.69;100.00
13767;BME280;47980;48.794;9.176;2023-02-15T04:02:01;99513.94;;;0.58;100.00
13767;BME280;47980;48.794;9.176;2023-02-15T04:04:37;99508.31;;;0.43;100.00
13767;BME280;47980;48.794;9.176;2023-02-15T04:07:09;99508.41;;;0.36;100.00
13767;BME280;47980;48.794;9.176;2023-02-15T04:09:43;99506.50;;;0.43;100.00
13767;BME280;47980;48.794;9.176;2023-02-15T04:12:32;99507.06;;;0.34;100.00
13767;BME280;47980;48.794;9.176;2023-02-15T04:15:04;99508.25;;;0.19;100.00
13767;BME280;47980;48.794;9.176;2023-02-15T04:17:53;99509.41;;;0.23;100.00
13767;BME280;47980;48.794;9.176;2023-02-15T04:20:25;99504.00;;;0.37;100.00
13767;BME280;47980;48.794;9.176;2023-02-15T04:23:14;99504.47;;;0.34;100.00
13767;BME280;47980;48.794;9.176;2023-02-15T04:26:05;99502.19;;;0.37;100.00
13767;BME280;47980;48.794;9.176;2023-02-15T04:28:36;99501.06;;;0.33;100.00
13767;BME280;47980;48.794;9.176;2023-02-15T04:31:08;99497.75;;;0.26;100.00
13767;BME280;47980;48.794;9.176;2023-02-15T04:33:39;99494.69;;;0.29;100.00
13767;BME280;47980;48.794;9.176;2023-02-15T04:36:11;99496.84;;;0.32;100.00
13767;BME280;47980;48.794;9.176;2023-02-15T04:38:42;99500.59;;;0.36;100.00
13767;BME280;47980;48.794;9.176;2023-02-15T04:41:15;99499.56;;;0.26;100.00
13767;BME280;47980;48.794;9.176;2023-02-15T04:43:47;99494.47;;;0.31;100.00
13767;BME280;47980;48.794;9.176;2023-02-15T04:46:18;99492.28;;;0.28;100.00
13767;BME280;47980;48.794;9.176;2023-02-15T04:48:50;99486.59;;;0.19;100.00
13767;BME280;47980;48.794;9.176;2023-02-15T04:51:22;99471.75;;;0.19;100.00
13767;BME280;47980;48.794;9.176;2023-02-15T04:53:53;99478.44;;;0.15;100.00
13767;BME280;47980;48.794;9.176;2023-02-15T04:56:26;99467.28;;;0.08;100.00
13767;BME280;47980;48.794;9.176;2023-02-15T04:59:00;99462.16;;;0.02;100.00
13767;BME280;47980;48.794;9.176;2023-02-15T05:01:31;99466.56;;;0.01;100.00
13767;BME280;47980;48.794;9.176;2023-02-15T05:04:03;99461.72;;;0.05;100.00
13767;BME280;47980;48.794;9.176;2023-02-15T05:06:34;99458.25;;;-0.08;100.00
13767;BME280;47980;48.794;9.176;2023-02-15T05:09:06;99471.56;;;0.03;100.00
13767;BME280;47980;48.794;9.176;2023-02-15T05:11:39;99477.22;;;-0.01;100.00
13767;BME280;47980;48.794;9.176;2023-02-15T05:14:11;99482.75;;;-0.09;100.00
13767;BME280;47980;48.794;9.176;2023-02-15T05:16:42;99463.63;;;-0.03;100.00
13767;BME280;47980;48.794;9.176;2023-02-15T05:19:14;99475.84;;;-0.03;100.00
13767;BME280;47980;48.794;9.176;2023-02-15T05:21:45;99478.94;;;0.06;100.00
13767;BME280;47980;48.794;9.176;2023-02-15T05:24:17;99476.78;;;0.03;100.00
13767;BME280;47980;48.794;9.176;2023-02-15T05:27:03;99476.97;;;-0.11;100.00
13767;BME280;47980;48.794;9.176;2023-02-15T05:29:52;99478.84;;;-0.18;100.00
13767;BME280;47980;48.794;9.176;2023-02-15T05:32:24;99479.41;;;-0.16;100.00
13767;BME280;47980;48.794;9.176;2023-02-15T05:34:55;99481.72;;;-0.08;100.00
13767;BME280;47980;48.794;9.176;2023-02-15T05:37:27;99480.75;;;-0.25;100.00
13767;BME280;47980;48.794;9.176;2023-02-15T05:39:59;99482.34;;;-0.24;100.00
13767;BME280;47980;48.794;9.176;2023-02-15T05:42:32;99484.94;;;-0.24;100.00
13767;BME280;47980;48.794;9.176;2023-02-15T05:45:04;99488.22;;;-0.29;100.00
13767;BME280;47980;48.794;9.176;2023-02-15T05:47:36;99486.91;;;-0.38;100.00
13767;BME280;47980;48.794;9.176;2023-02-15T05:50:08;99485.16;;;-0.44;100.00
13767;BME280;47980;48.794;9.176;2023-02-15T05:52:41;99485.75;;;-0.42;100.00
13767;BME280;47980;48.794;9.176;2023-02-15T05:55:13;99481.03;;;-0.52;100.00
13767;BME280;47980;48.794;9.176;2023-02-15T05:57:46;99476.03;;;-0.35;100.00
13767;BME280;47980;48.794;9.176;2023-02-15T06:00:17;99483.56;;;-0.63;100.00
13767;BME280;47980;48.794;9.176;2023-02-15T06:02:49;99482.66;;;-0.69;100.00
13767;BME280;47980;48.794;9.176;2023-02-15T06:05:20;99493.84;;;-0.68;100.00
13767;BME280;47980;48.794;9.176;2023-02-15T06:07:52;99486.97;;;-0.63;100.00
13767;BME280;47980;48.794;9.176;2023-02-15T06:10:23;99487.66;;;-0.92;100.00
13767;BME280;47980;48.794;9.176;2023-02-15T06:12:56;99488.09;;;-0.95;100.00
13767;BME280;47980;48.794;9.176;2023-02-15T06:15:28;99487.06;;;-0.94;99.51
13767;BME280;47980;48.794;9.176;2023-02-15T06:17:59;99484.31;;;-1.00;99.02
13767;BME280;47980;48.794;9.176;2023-02-15T06:20:31;99488.97;;;-1.02;99.79
13767;BME280;47980;48.794;9.176;2023-02-15T06:23:02;99498.44;;;-0.89;100.00
13767;BME280;47980;48.794;9.176;2023-02-15T06:25:34;99495.75;;;-1.01;100.00
13767;BME280;47980;48.794;9.176;2023-02-15T06:28:07;99502.13;;;-0.97;99.26
13767;BME280;47980;48.794;9.176;2023-02-15T06:30:39;99501.34;;;-0.97;99.78
13767;BME280;47980;48.794;9.176;2023-02-15T06:33:10;99498.88;;;-0.92;100.00
13767;BME280;47980;48.794;9.176;2023-02-15T06:35:42;99498.69;;;-0.90;98.69
13767;BME280;47980;48.794;9.176;2023-02-15T06:38:13;99514.88;;;-0.88;100.00
13767;BME280;47980;48.794;9.176;2023-02-15T06:40:45;99508.16;;;-0.78;100.00
13767;BME280;47980;48.794;9.176;2023-02-15T06:43:18;99512.94;;;-0.75;99.89
13767;BME280;47980;48.794;9.176;2023-02-15T06:45:49;99521.41;;;-0.79;99.78
13767;BME280;47980;48.794;9.176;2023-02-15T06:48:21;99514.13;;;-0.95;100.00
13767;BME280;47980;48.794;9.176;2023-02-15T06:50:52;99517.44;;;-1.07;100.00
13767;BME280;47980;48.794;9.176;2023-02-15T06:53:24;99517.28;;;-0.87;99.62
13767;BME280;47980;48.794;9.176;2023-02-15T06:56:00;99512.94;;;-0.75;99.93
13767;BME280;47980;48.794;9.176;2023-02-15T06:58:34;99515.47;;;-1.11;100.00
13767;BME280;47980;48.794;9.176;2023-02-15T07:01:06;99513.00;;;-1.31;100.00
13767;BME280;47980;48.794;9.176;2023-02-15T07:03:38;99517.75;;;-1.53;100.00
13767;BME280;47980;48.794;9.176;2023-02-15T07:06:10;99519.75;;;-1.49;100.00
13767;BME280;47980;48.794;9.176;2023-02-15T07:08:42;99519.19;;;-1.01;100.00
13767;BME280;47980;48.794;9.176;2023-02-15T07:11:13;99525.34;;;-0.52;100.00
13767;BME280;47980;48.794;9.176;2023-02-15T07:14:04;99526.34;;;-0.71;100.00
13767;BME280;47980;48.794;9.176;2023-02-15T07:16:35;99532.53;;;-0.90;100.00
13767;BME280;47980;48.794;9.176;2023-02-15T07:19:07;99526.03;;;-0.81;100.00
13767;BME280;47980;48.794;9.176;2023-02-15T07:21:39;99537.63;;;-0.59;100.00
13767;BME280;47980;48.794;9.176;2023-02-15T07:24:10;99528.72;;;-0.51;100.00
13767;BME280;47980;48.794;9.176;2023-02-15T07:26:42;99542.19;;;-0.73;100.00
13767;BME280;47980;48.794;9.176;2023-02-15T07:29:15;99544.56;;;-0.71;100.00
13767;BME280;47980;48.794;9.176;2023-02-15T07:31:47;99537.56;;;-0.34;100.00
13767;BME280;47980;48.794;9.176;2023-02-15T07:34:18;99533.97;;;-0.33;100.00
13767;BME280;47980;48.794;9.176;2023-02-15T07:36:50;99540.84;;;-0.38;100.00
13767;BME280;47980;48.794;9.176;2023-02-15T07:39:22;99535.56;;;-0.32;100.00
13767;BME280;47980;48.794;9.176;2023-02-15T07:41:53;99534.25;;;-0.41;100.00
13767;BME280;47980;48.794;9.176;2023-02-15T07:44:26;99533.06;;;-0.63;100.00
13767;BME280;47980;48.794;9.176;2023-02-15T07:46:58;99526.66;;;-0.42;100.00
13767;BME280;47980;48.794;9.176;2023-02-15T07:49:29;99519.19;;;-0.20;100.00
13767;BME280;47980;48.794;9.176;2023-02-15T07:52:01;99521.88;;;-0.45;100.00
13767;BME280;47980;48.794;9.176;2023-02-15T07:54:32;99512.03;;;-0.43;100.00
13767;BME280;47980;48.794;9.176;2023-02-15T07:57:04;99509.00;;;0.08;100.00
13767;BME280;47980;48.794;9.176;2023-02-15T07:59:37;99513.78;;;0.41;100.00
13767;BME280;47980;48.794;9.176;2023-02-15T08:02:09;99512.75;;;0.42;100.00
13767;BME280;47980;48.794;9.176;2023-02-15T08:04:41;99521.97;;;0.45;99.73
13767;BME280;47980;48.794;9.176;2023-02-15T08:07:13;99523.09;;;0.91;98.94
13767;BME280;47980;48.794;9.176;2023-02-15T08:09:44;99525.31;;;0.76;97.84
13767;BME280;47980;48.794;9.176;2023-02-15T08:12:16;99522.41;;;0.42;97.54
13767;BME280;47980;48.794;9.176;2023-02-15T08:14:48;99523.78;;;0.98;97.57
13767;BME280;47980;48.794;9.176;2023-02-15T08:17:20;99530.81;;;1.21;96.45
13767;BME280;47980;48.794;9.176;2023-02-15T08:19:52;99529.22;;;1.43;95.41
13767;BME280;47980;48.794;9.176;2023-02-15T08:22:23;99527.72;;;1.48;97.31
13767;BME280;47980;48.794;9.176;2023-02-15T08:24:56;99529.44;;;1.54;96.99
13767;BME280;47980;48.794;9.176;2023-02-15T08:27:28;99515.38;;;1.83;94.83
13767;BME280;47980;48.794;9.176;2023-02-15T08:30:00;99522.63;;;1.53;94.21
13767;BME280;47980;48.794;9.176;2023-02-15T08:32:32;99525.97;;;1.77;93.38
13767;BME280;47980;48.794;9.176;2023-02-15T08:35:04;99527.38;;;1.56;93.36
13767;BME280;47980;48.794;9.176;2023-02-15T08:37:36;99521.81;;;1.40;94.45
13767;BME280;47980;48.794;9.176;2023-02-15T08:40:08;99523.53;;;0.88;97.87
13767;BME280;47980;48.794;9.176;2023-02-15T08:42:40;99522.84;;;1.16;99.18
13767;BME280;47980;48.794;9.176;2023-02-15T08:45:15;99522.63;;;1.41;96.36
13767;BME280;47980;48.794;9.176;2023-02-15T08:47:46;99534.22;;;0.98;98.36
13767;BME280;47980;48.794;9.176;2023-02-15T08:50:18;99535.34;;;1.37;96.55
13767;BME280;47980;48.794;9.176;2023-02-15T08:52:49;99529.44;;;1.18;97.02
13767;BME280;47980;48.794;9.176;2023-02-15T08:55:21;99521.16;;;1.22;97.50
13767;BME280;47980;48.794;9.176;2023-02-15T08:57:52;99518.31;;;1.23;97.38
13767;BME280;47980;48.794;9.176;2023-02-15T09:00:27;99527.06;;;1.40;97.67
13767;BME280;47980;48.794;9.176;2023-02-15T09:02:59;99513.75;;;1.54;97.42
13767;BME280;47980;48.794;9.176;2023-02-15T09:05:30;99510.59;;;0.93;99.95
13767;BME280;47980;48.794;9.176;2023-02-15T09:08:02;99512.50;;;1.33;98.28
13767;BME280;47980;48.794;9.176;2023-02-15T09:10:33;99512.06;;;0.77;100.00
13767;BME280;47980;48.794;9.176;2023-02-15T09:13:05;99510.34;;;0.83;100.00
13767;BME280;47980;48.794;9.176;2023-02-15T09:15:38;99506.84;;;1.36;99.61
13767;BME280;47980;48.794;9.176;2023-02-15T09:18:09;99508.72;;;1.52;98.08
13767;BME280;47980;48.794;9.176;2023-02-15T09:20:43;99501.56;;;2.00;97.40
13767;BME280;47980;48.794;9.176;2023-02-15T09:23:15;99501.88;;;2.15;94.36
13767;BME280;47980;48.794;9.176;2023-02-15T09:25:46;99496.03;;;1.96;94.65
13767;BME280;47980;48.794;9.176;2023-02-15T09:28:18;99499.84;;;2.05;96.34
13767;BME280;47980;48.794;9.176;2023-02-15T09:30:51;99492.44;;;2.31;95.35
13767;BME280;47980;48.794;9.176;2023-02-15T09:33:23;99485.34;;;2.60;94.70
13767;BME280;47980;48.794;9.176;2023-02-15T09:35:56;99491.53;;;2.71;92.94
13767;BME280;47980;48.794;9.176;2023-02-15T09:38:28;99486.81;;;2.39;92.24
13767;BME280;47980;48.794;9.176;2023-02-15T09:41:15;99491.34;;;2.27;94.85
13767;BME280;47980;48.794;9.176;2023-02-15T09:43:55;99477.50;;;2.60;94.05
13767;BME280;47980;48.794;9.176;2023-02-15T09:46:41;99477.97;;;2.74;94.83
13767;BME280;47980;48.794;9.176;2023-02-15T09:49:22;99473.78;;;2.73;92.30
13767;BME280;47980;48.794;9.176;2023-02-15T09:52:08;99476.56;;;2.66;93.73
13767;BME280;47980;48.794;9.176;2023-02-15T09:54:55;99475.97;;;2.64;91.75
13767;BME280;47980;48.794;9.176;2023-02-15T09:57:36;99477.25;;;2.95;92.90
13767;BME280;47980;48.794;9.176;2023-02-15T10:00:16;99477.03;;;2.17;93.41
13767;BME280;47980;48.794;9.176;2023-02-15T10:03:07;99471.59;;;2.36;92.44
13767;BME280;47980;48.794;9.176;2023-02-15T10:05:53;99462.97;;;2.69;91.64
13767;BME280;47980;48.794;9.176;2023-02-15T10:08:51;99464.66;;;3.14;88.76
13767;BME280;47980;48.794;9.176;2023-02-15T10:11:36;99467.53;;;3.12;89.35
13767;BME280;47980;48.794;9.176;2023-02-15T10:14:37;99463.91;;;3.57;87.64
13767;BME280;47980;48.794;9.176;2023-02-15T10:17:25;99461.94;;;3.70;85.87
13767;BME280;47980;48.794;9.176;2023-02-15T10:20:08;99457.69;;;3.64;86.16
13767;BME280;47980;48.794;9.176;2023-02-15T10:22:52;99460.50;;;3.57;85.76
13767;BME280;47980;48.794;9.176;2023-02-15T10:25:39;99459.25;;;3.86;84.79
13767;BME280;47980;48.794;9.176;2023-02-15T10:28:16;99464.25;;;3.88;84.19
13767;BME280;47980;48.794;9.176;2023-02-15T10:30:49;99448.00;;;3.91;83.23
13767;BME280;47980;48.794;9.176;2023-02-15T10:33:31;99452.50;;;3.96;84.08
13767;BME280;47980;48.794;9.176;2023-02-15T10:36:18;99454.50;;;4.38;82.35
13767;BME280;47980;48.794;9.176;2023-02-15T10:38:59;99446.28;;;4.29;82.51
13767;BME280;47980;48.794;9.176;2023-02-15T10:41:41;99443.66;;;4.29;81.21
13767;BME280;47980;48.794;9.176;2023-02-15T10:44:45;99443.41;;;4.30;82.29
13767;BME280;47980;48.794;9.176;2023-02-15T10:47:34;99444.94;;;4.58;80.84
13767;BME280;47980;48.794;9.176;2023-02-15T10:50:27;99435.19;;;4.91;78.16
13767;BME280;47980;48.794;9.176;2023-02-15T10:53:14;99426.31;;;5.02;78.04
13767;BME280;47980;48.794;9.176;2023-02-15T10:55:55;99431.13;;;5.21;78.86
13767;BME280;47980;48.794;9.176;2023-02-15T10:58:35;99428.50;;;5.16;78.43
13767;BME280;47980;48.794;9.176;2023-02-15T11:01:13;99419.91;;;5.41;77.53
13767;BME280;47980;48.794;9.176;2023-02-15T11:04:11;99415.94;;;5.33;78.35
13767;BME280;47980;48.794;9.176;2023-02-15T11:06:50;99411.00;;;5.47;75.94
13767;BME280;47980;48.794;9.176;2023-02-15T11:09:28;99418.16;;;5.62;75.99
13767;BME280;47980;48.794;9.176;2023-02-15T11:12:01;99408.41;;;5.57;75.90
13767;BME280;47980;48.794;9.176;2023-02-15T11:14:38;99413.72;;;5.77;75.87
13767;BME280;47980;48.794;9.176;2023-02-15T11:17:14;99396.13;;;5.93;75.06
13767;BME280;47980;48.794;9.176;2023-02-15T11:19:54;99402.69;;;5.91;74.54
13767;BME280;47980;48.794;9.176;2023-02-15T11:22:27;99405.38;;;6.21;73.47
13767;BME280;47980;48.794;9.176;2023-02-15T11:25:14;99404.06;;;6.14;74.07
13767;BME280;47980;48.794;9.176;2023-02-15T11:27:48;99400.66;;;6.29;74.56
13767;BME280;47980;48.794;9.176;2023-02-15T11:30:21;99394.81;;;6.57;72.99
13767;BME280;47980;48.794;9.176;2023-02-15T11:32:56;99400.59;;;6.74;71.84
13767;BME280;47980;48.794;9.176;2023-02-15T11:35:32;99397.22;;;6.43;72.56
13767;BME280;47980;48.794;9.176;2023-02-15T11:38:11;99389.81;;;6.35;74.02
13767;BME280;47980;48.794;9.176;2023-02-15T11:40:48;99394.53;;;6.64;75.24
13767;BME280;47980;48.794;9.176;2023-02-15T11:43:23;99392.13;;;6.98;74.26
13767;BME280;47980;48.794;9.176;2023-02-15T11:45:57;99390.31;;;6.83;73.15
13767;BME280;47980;48.794;9.176;2023-02-15T11:48:29;99389.44;;;7.13;71.89
13767;BME280;47980;48.794;9.176;2023-02-15T11:51:02;99393.34;;;7.21;71.15
13767;BME280;47980;48.794;9.176;2023-02-15T11:53:36;99388.78;;;7.42;73.17
13767;BME280;47980;48.794;9.176;2023-02-15T11:56:14;99393.31;;;7.26;71.50
13767;BME280;47980;48.794;9.176;2023-02-15T11:58:49;99384.28;;;7.42;72.01
13767;BME280;47980;48.794;9.176;2023-02-15T12:01:24;99388.22;;;7.50;71.00
13767;BME280;47980;48.794;9.176;2023-02-15T12:04:04;99393.25;;;7.52;71.92
13767;BME280;47980;48.794;9.176;2023-02-15T12:06:43;99386.28;;;7.66;71.60
13767;BME280;47980;48.794;9.176;2023-02-15T12:09:22;99381.47;;;7.18;72.84
13767;BME280;47980;48.794;9.176;2023-02-15T12:12:21;99377.06;;;7.58;71.29
13767;BME280;47980;48.794;9.176;2023-02-15T12:14:54;99384.78;;;7.50;71.03
13767;BME280;47980;48.794;9.176;2023-02-15T12:17:28;99385.44;;;7.76;70.90
13767;BME280;47980;48.794;9.176;2023-02-15T12:20:02;99364.66;;;7.98;69.30
13767;BME280;47980;48.794;9.176;2023-02-15T12:22:36;99364.44;;;7.94;69.33
13767;BME280;47980;48.794;9.176;2023-02-15T12:25:20;99372.22;;;7.76;70.47
13767;BME280;47980;48.794;9.176;2023-02-15T12:27:54;99357.59;;;7.93;68.64
13767;BME280;47980;48.794;9.176;2023-02-15T12:30:30;99353.97;;;7.84;69.74
13767;BME280;47980;48.794;9.176;2023-02-15T12:33:12;99367.16;;;7.84;69.92
13767;BME280;47980;48.794;9.176;2023-02-15T12:35:45;99356.94;;;7.72;70.59
13767;BME280;47980;48.794;9.176;2023-02-15T12:38:23;99354.47;;;7.86;69.36
13767;BME280;47980;48.794;9.176;2023-02-15T12:41:01;99359.84;;;8.10;69.95
13767;BME280;47980;48.794;9.176;2023-02-15T12:43:36;99357.25;;;8.34;69.67
13767;BME280;47980;48.794;9.176;2023-02-15T12:46:22;99352.09;;;8.19;69.16
13767;BME280;47980;48.794;9.176;2023-02-15T12:49:13;99345.88;;;8.39;68.59
13767;BME280;47980;48.794;9.176;2023-02-15T12:51:48;99342.31;;;8.54;68.02
13767;BME280;47980;48.794;9.176;2023-02-15T12:54:29;99340.19;;;8.80;67.64
13767;BME280;47980;48.794;9.176;2023-02-15T12:57:23;99332.97;;;8.61;68.79
13767;BME280;47980;48.794;9.176;2023-02-15T12:59:58;99327.34;;;8.92;66.84
13767;BME280;47980;48.794;9.176;2023-02-15T13:02:35;99331.66;;;9.07;65.88
13767;BME280;47980;48.794;9.176;2023-02-15T13:05:17;99326.91;;;9.04;66.33
13767;BME280;47980;48.794;9.176;2023-02-15T13:07:51;99324.91;;;9.20;67.57
13767;BME280;47980;48.794;9.176;2023-02-15T13:10:27;99318.59;;;9.15;67.61
13767;BME280;47980;48.794;9.176;2023-02-15T13:12:59;99315.09;;;8.96;67.11
13767;BME280;47980;48.794;9.176;2023-02-15T13:15:37;99303.94;;;8.80;68.20
13767;BME280;47980;48.794;9.176;2023-02-15T13:18:12;99303.53;;;8.92;69.81
13767;BME280;47980;48.794;9.176;2023-02-15T13:20:46;99297.34;;;9.21;67.65
13767;BME280;47980;48.794;9.176;2023-02-15T13:23:25;99295.53;;;8.97;70.03
13767;BME280;47980;48.794;9.176;2023-02-15T13:26:03;99297.22;;;8.88;71.09
13767;BME280;47980;48.794;9.176;2023-02-15T13:28:38;99295.81;;;8.96;71.10
13767;BME280;47980;48.794;9.176;2023-02-15T13:31:15;99290.25;;;9.16;70.01
13767;BME280;47980;48.794;9.176;2023-02-15T13:33:49;99292.25;;;9.05;69.80
13767;BME280;47980;48.794;9.176;2023-02-15T13:36:26;99288.75;;;9.29;70.77
13767;BME280;47980;48.794;9.176;2023-02-15T13:39:07;99281.72;;;9.00;70.21
13767;BME280;47980;48.794;9.176;2023-02-15T13:41:55;99284.63;;;9.23;70.05
13767;BME280;47980;48.794;9.176;2023-02-15T13:44:44;99284.53;;;9.28;69.60
13767;BME280;47980;48.794;9.176;2023-02-15T13:47:27;99279.16;;;9.33;70.07
13767;BME280;47980;48.794;9.176;2023-02-15T13:53:18;99270.94;;;9.34;68.79
13767;BME280;47980;48.794;9.176;2023-02-15T13:55:55;99269.22;;;9.25;69.02
13767;BME280;47980;48.794;9.176;2023-02-15T13:58:52;99268.50;;;9.38;67.36
13767;BME280;47980;48.794;9.176;2023-02-15T14:01:33;99269.00;;;9.40;68.07